Terminal Aerodrome Forecast
Issued by NWS

Home | Current Version | Previous Version | Text Only | Print | Product List | Glossary On
Versions: 1 2 3 4 5 6 7 8 9 10 11 12 13
000
FTUS45 KLKN 192300
TAFEKO
TAF
KEKO 192332Z 2000/2024 25012G20KT P6SM FEW080 SCT250
     FM200200 VRB03KT P6SM SCT070 SCT200
     FM202000 25009KT P6SM SCT250=

USA.gov is the U.S. government's official web portal to all federal, state and local government web resources and services.